sensor_id;sensor_type;location;lat;lon;timestamp;pressure;altitude;pressure_sealevel;temperature;humidity
37368;BME280;23240;43.210;27.910;2023-08-07T00:01:22;100017.31;;;21.92;100.00
37368;BME280;23240;43.210;27.910;2023-08-07T00:03:47;100019.22;;;21.85;100.00
37368;BME280;23240;43.210;27.910;2023-08-07T00:06:13;100022.59;;;21.87;100.00
37368;BME280;23240;43.210;27.910;2023-08-07T00:08:38;100023.41;;;21.88;100.00
37368;BME280;23240;43.210;27.910;2023-08-07T00:11:04;100020.72;;;21.81;100.00
37368;BME280;23240;43.210;27.910;2023-08-07T00:13:29;100025.78;;;21.77;100.00
37368;BME280;23240;43.210;27.910;2023-08-07T00:15:55;100018.41;;;21.78;100.00
37368;BME280;23240;43.210;27.910;2023-08-07T00:18:20;100026.59;;;21.78;100.00
37368;BME280;23240;43.210;27.910;2023-08-07T00:20:45;100028.28;;;21.79;100.00
37368;BME280;23240;43.210;27.910;2023-08-07T00:23:10;100027.84;;;21.82;100.00
37368;BME280;23240;43.210;27.910;2023-08-07T00:25:36;100029.75;;;21.81;100.00
37368;BME280;23240;43.210;27.910;2023-08-07T00:28:01;100023.66;;;21.79;100.00
37368;BME280;23240;43.210;27.910;2023-08-07T00:30:26;100028.28;;;21.79;100.00
37368;BME280;23240;43.210;27.910;2023-08-07T00:32:51;100023.47;;;21.74;100.00
37368;BME280;23240;43.210;27.910;2023-08-07T00:35:17;100025.56;;;21.72;100.00
37368;BME280;23240;43.210;27.910;2023-08-07T00:37:42;100025.13;;;21.75;100.00
37368;BME280;23240;43.210;27.910;2023-08-07T00:40:08;100020.31;;;21.71;100.00
37368;BME280;23240;43.210;27.910;2023-08-07T00:42:33;100032.06;;;21.78;100.00
37368;BME280;23240;43.210;27.910;2023-08-07T00:44:58;100038.13;;;21.80;100.00
37368;BME280;23240;43.210;27.910;2023-08-07T00:47:24;100040.66;;;21.81;100.00
37368;BME280;23240;43.210;27.910;2023-08-07T00:49:49;100041.06;;;21.78;100.00
37368;BME280;23240;43.210;27.910;2023-08-07T00:52:14;100041.06;;;21.78;100.00
37368;BME280;23240;43.210;27.910;2023-08-07T00:54:40;100045.28;;;21.74;100.00
37368;BME280;23240;43.210;27.910;2023-08-07T00:57:14;100037.72;;;21.70;100.00
37368;BME280;23240;43.210;27.910;2023-08-07T00:59:40;100033.34;;;21.69;100.00
37368;BME280;23240;43.210;27.910;2023-08-07T01:02:06;100049.09;;;21.67;100.00
37368;BME280;23240;43.210;27.910;2023-08-07T01:04:32;100056.81;;;21.70;100.00
37368;BME280;23240;43.210;27.910;2023-08-07T01:06:57;100057.88;;;21.69;100.00
37368;BME280;23240;43.210;27.910;2023-08-07T01:09:23;100060.00;;;21.67;100.00
37368;BME280;23240;43.210;27.910;2023-08-07T01:11:49;100062.72;;;21.67;100.00
37368;BME280;23240;43.210;27.910;2023-08-07T01:16:57;100067.31;;;21.73;100.00
37368;BME280;23240;43.210;27.910;2023-08-07T01:19:26;100070.22;;;21.78;100.00
37368;BME280;23240;43.210;27.910;2023-08-07T01:22:08;100075.91;;;21.76;100.00
37368;BME280;23240;43.210;27.910;2023-08-07T01:24:34;100077.19;;;21.67;100.00
37368;BME280;23240;43.210;27.910;2023-08-07T01:29:46;100090.56;;;21.75;100.00
37368;BME280;23240;43.210;27.910;2023-08-07T01:32:16;100094.97;;;21.70;100.00
37368;BME280;23240;43.210;27.910;2023-08-07T01:34:44;100097.50;;;21.65;100.00
37368;BME280;23240;43.210;27.910;2023-08-07T01:37:10;100102.13;;;21.64;100.00
37368;BME280;23240;43.210;27.910;2023-08-07T01:39:37;100100.69;;;21.62;100.00
37368;BME280;23240;43.210;27.910;2023-08-07T01:42:03;100108.00;;;21.54;100.00
37368;BME280;23240;43.210;27.910;2023-08-07T01:44:30;100110.31;;;21.51;100.00
37368;BME280;23240;43.210;27.910;2023-08-07T01:46:55;100104.28;;;21.42;100.00
37368;BME280;23240;43.210;27.910;2023-08-07T01:49:20;100113.66;;;21.46;100.00
37368;BME280;23240;43.210;27.910;2023-08-07T01:51:46;100117.44;;;21.45;100.00
37368;BME280;23240;43.210;27.910;2023-08-07T01:54:11;100114.97;;;21.37;100.00
37368;BME280;23240;43.210;27.910;2023-08-07T01:56:36;100123.75;;;21.39;100.00
37368;BME280;23240;43.210;27.910;2023-08-07T01:59:02;100114.53;;;21.34;100.00
37368;BME280;23240;43.210;27.910;2023-08-07T02:01:27;100124.59;;;21.33;100.00
37368;BME280;23240;43.210;27.910;2023-08-07T02:03:52;100123.97;;;21.31;100.00
37368;BME280;23240;43.210;27.910;2023-08-07T02:06:17;100125.81;;;21.24;100.00
37368;BME280;23240;43.210;27.910;2023-08-07T02:08:43;100130.00;;;21.20;100.00
37368;BME280;23240;43.210;27.910;2023-08-07T02:11:08;100132.94;;;21.25;100.00
37368;BME280;23240;43.210;27.910;2023-08-07T02:13:33;100132.50;;;21.21;100.00
37368;BME280;23240;43.210;27.910;2023-08-07T02:15:59;100133.38;;;21.15;100.00
37368;BME280;23240;43.210;27.910;2023-08-07T02:18:24;100132.53;;;21.15;100.00
37368;BME280;23240;43.210;27.910;2023-08-07T02:20:49;100139.66;;;21.09;100.00
37368;BME280;23240;43.210;27.910;2023-08-07T02:23:15;100138.38;;;21.05;100.00
37368;BME280;23240;43.210;27.910;2023-08-07T02:25:40;100136.28;;;21.00;100.00
37368;BME280;23240;43.210;27.910;2023-08-07T02:28:05;100132.50;;;21.01;100.00
37368;BME280;23240;43.210;27.910;2023-08-07T02:30:31;100138.78;;;20.95;100.00
37368;BME280;23240;43.210;27.910;2023-08-07T02:32:56;100149.03;;;20.87;100.00
37368;BME280;23240;43.210;27.910;2023-08-07T02:35:21;100139.81;;;20.88;100.00
37368;BME280;23240;43.210;27.910;2023-08-07T02:37:47;100144.22;;;20.82;100.00
37368;BME280;23240;43.210;27.910;2023-08-07T02:40:12;100152.59;;;20.81;100.00
37368;BME280;23240;43.210;27.910;2023-08-07T02:42:40;100154.25;;;20.75;100.00
37368;BME280;23240;43.210;27.910;2023-08-07T02:45:05;100156.75;;;20.70;100.00
37368;BME280;23240;43.210;27.910;2023-08-07T02:47:31;100160.94;;;20.66;100.00
37368;BME280;23240;43.210;27.910;2023-08-07T02:49:56;100159.25;;;20.65;100.00
37368;BME280;23240;43.210;27.910;2023-08-07T02:52:21;100165.94;;;20.62;100.00
37368;BME280;23240;43.210;27.910;2023-08-07T02:54:47;100164.03;;;20.56;100.00
37368;BME280;23240;43.210;27.910;2023-08-07T02:57:12;100167.59;;;20.57;100.00
37368;BME280;23240;43.210;27.910;2023-08-07T02:59:37;100163.81;;;20.51;100.00
37368;BME280;23240;43.210;27.910;2023-08-07T03:02:03;100173.00;;;20.50;100.00
37368;BME280;23240;43.210;27.910;2023-08-07T03:04:28;100166.72;;;20.49;100.00
37368;BME280;23240;43.210;27.910;2023-08-07T03:06:53;100161.69;;;20.46;100.00
37368;BME280;23240;43.210;27.910;2023-08-07T03:09:19;100174.88;;;20.49;100.00
37368;BME280;23240;43.210;27.910;2023-08-07T03:11:45;100173.44;;;20.47;100.00
37368;BME280;23240;43.210;27.910;2023-08-07T03:14:10;100177.81;;;20.48;100.00
37368;BME280;23240;43.210;27.910;2023-08-07T03:16:35;100180.06;;;20.44;100.00
37368;BME280;23240;43.210;27.910;2023-08-07T03:19:01;100193.03;;;20.42;100.00
37368;BME280;23240;43.210;27.910;2023-08-07T03:21:26;100194.72;;;20.43;100.00
37368;BME280;23240;43.210;27.910;2023-08-07T03:23:51;100179.59;;;20.34;100.00
37368;BME280;23240;43.210;27.910;2023-08-07T03:26:17;100184.88;;;20.36;100.00
37368;BME280;23240;43.210;27.910;2023-08-07T03:28:42;100195.94;;;20.34;100.00
37368;BME280;23240;43.210;27.910;2023-08-07T03:31:10;100193.63;;;20.31;100.00
37368;BME280;23240;43.210;27.910;2023-08-07T03:33:35;100200.75;;;20.32;100.00
37368;BME280;23240;43.210;27.910;2023-08-07T03:36:01;100195.69;;;20.29;100.00
37368;BME280;23240;43.210;27.910;2023-08-07T03:38:26;100199.69;;;20.26;100.00
37368;BME280;23240;43.210;27.910;2023-08-07T03:40:52;100197.38;;;20.30;100.00
37368;BME280;23240;43.210;27.910;2023-08-07T03:43:17;100199.69;;;20.33;100.00
37368;BME280;23240;43.210;27.910;2023-08-07T03:45:42;100205.16;;;20.40;100.00
37368;BME280;23240;43.210;27.910;2023-08-07T03:48:08;100204.75;;;20.43;100.00
37368;BME280;23240;43.210;27.910;2023-08-07T03:50:33;100214.41;;;20.45;100.00
37368;BME280;23240;43.210;27.910;2023-08-07T03:53:05;100202.47;;;20.46;100.00
37368;BME280;23240;43.210;27.910;2023-08-07T03:55:32;100217.78;;;20.47;100.00
37368;BME280;23240;43.210;27.910;2023-08-07T03:57:57;100214.03;;;20.48;100.00
37368;BME280;23240;43.210;27.910;2023-08-07T04:00:22;100212.34;;;20.47;100.00
37368;BME280;23240;43.210;27.910;2023-08-07T04:02:48;100213.63;;;20.51;100.00
37368;BME280;23240;43.210;27.910;2023-08-07T04:05:13;100204.63;;;20.51;100.00
37368;BME280;23240;43.210;27.910;2023-08-07T04:07:38;100207.75;;;20.48;100.00
37368;BME280;23240;43.210;27.910;2023-08-07T04:10:04;100218.84;;;20.53;100.00
37368;BME280;23240;43.210;27.910;2023-08-07T04:12:29;100211.56;;;20.60;100.00
37368;BME280;23240;43.210;27.910;2023-08-07T04:14:55;100211.97;;;20.64;100.00
37368;BME280;23240;43.210;27.910;2023-08-07T04:17:20;100214.69;;;20.64;100.00
37368;BME280;23240;43.210;27.910;2023-08-07T04:19:45;100223.53;;;20.66;100.00
37368;BME280;23240;43.210;27.910;2023-08-07T04:22:10;100213.09;;;20.76;100.00
37368;BME280;23240;43.210;27.910;2023-08-07T04:24:36;100216.84;;;20.75;100.00
37368;BME280;23240;43.210;27.910;2023-08-07T04:27:01;100211.19;;;20.76;100.00
37368;BME280;23240;43.210;27.910;2023-08-07T04:29:26;100220.81;;;20.79;100.00
37368;BME280;23240;43.210;27.910;2023-08-07T04:31:52;100224.19;;;20.81;100.00
37368;BME280;23240;43.210;27.910;2023-08-07T04:34:17;100230.91;;;20.85;100.00
37368;BME280;23240;43.210;27.910;2023-08-07T04:36:42;100222.16;;;20.96;100.00
37368;BME280;23240;43.210;27.910;2023-08-07T04:39:08;100232.03;;;21.11;100.00
37368;BME280;23240;43.210;27.910;2023-08-07T04:41:33;100237.72;;;21.29;100.00
37368;BME280;23240;43.210;27.910;2023-08-07T04:43:59;100238.63;;;21.63;100.00
37368;BME280;23240;43.210;27.910;2023-08-07T04:46:24;100235.44;;;21.99;100.00
37368;BME280;23240;43.210;27.910;2023-08-07T04:48:49;100238.34;;;22.24;100.00
37368;BME280;23240;43.210;27.910;2023-08-07T04:51:15;100233.72;;;22.31;100.00
37368;BME280;23240;43.210;27.910;2023-08-07T04:53:40;100235.97;;;22.54;100.00
37368;BME280;23240;43.210;27.910;2023-08-07T04:56:06;100247.22;;;23.16;100.00
37368;BME280;23240;43.210;27.910;2023-08-07T04:58:31;100245.31;;;23.23;100.00
37368;BME280;23240;43.210;27.910;2023-08-07T05:00:57;100248.63;;;23.25;100.00
37368;BME280;23240;43.210;27.910;2023-08-07T05:03:23;100239.19;;;22.89;100.00
37368;BME280;23240;43.210;27.910;2023-08-07T05:05:48;100256.84;;;23.25;100.00
37368;BME280;23240;43.210;27.910;2023-08-07T05:08:13;100258.00;;;23.42;100.00
37368;BME280;23240;43.210;27.910;2023-08-07T05:10:39;100258.50;;;23.57;100.00
37368;BME280;23240;43.210;27.910;2023-08-07T05:13:04;100266.53;;;23.52;100.00
37368;BME280;23240;43.210;27.910;2023-08-07T05:15:29;100263.03;;;23.45;100.00
37368;BME280;23240;43.210;27.910;2023-08-07T05:17:56;100268.88;;;23.49;100.00
37368;BME280;23240;43.210;27.910;2023-08-07T05:20:21;100272.53;;;23.36;100.00
37368;BME280;23240;43.210;27.910;2023-08-07T05:22:46;100275.06;;;23.63;100.00
37368;BME280;23240;43.210;27.910;2023-08-07T05:25:12;100273.09;;;23.45;97.60
37368;BME280;23240;43.210;27.910;2023-08-07T05:27:41;100265.69;;;23.52;95.56
37368;BME280;23240;43.210;27.910;2023-08-07T05:30:06;100272.19;;;23.26;98.27
37368;BME280;23240;43.210;27.910;2023-08-07T05:32:32;100268.13;;;23.67;94.99
37368;BME280;23240;43.210;27.910;2023-08-07T05:34:58;100265.06;;;23.81;93.23
37368;BME280;23240;43.210;27.910;2023-08-07T05:37:23;100265.81;;;23.95;90.80
37368;BME280;23240;43.210;27.910;2023-08-07T05:39:48;100261.75;;;24.23;88.19
37368;BME280;23240;43.210;27.910;2023-08-07T05:42:13;100282.25;;;24.32;85.92
37368;BME280;23240;43.210;27.910;2023-08-07T05:44:39;100273.56;;;24.42;84.50
37368;BME280;23240;43.210;27.910;2023-08-07T05:47:04;100288.25;;;24.66;83.23
37368;BME280;23240;43.210;27.910;2023-08-07T05:49:30;100288.63;;;24.69;81.28
37368;BME280;23240;43.210;27.910;2023-08-07T05:51:55;100295.63;;;24.65;81.67
37368;BME280;23240;43.210;27.910;2023-08-07T05:54:20;100299.19;;;24.66;82.31
37368;BME280;23240;43.210;27.910;2023-08-07T05:56:46;100287.78;;;24.69;81.08
37368;BME280;23240;43.210;27.910;2023-08-07T05:59:11;100294.06;;;24.32;81.26
37368;BME280;23240;43.210;27.910;2023-08-07T06:01:36;100296.53;;;24.41;80.67
37368;BME280;23240;43.210;27.910;2023-08-07T06:04:02;100311.00;;;24.23;81.52
37368;BME280;23240;43.210;27.910;2023-08-07T06:06:27;100290.44;;;24.39;81.10
37368;BME280;23240;43.210;27.910;2023-08-07T06:08:53;100292.53;;;24.61;78.65
37368;BME280;23240;43.210;27.910;2023-08-07T06:11:18;100294.88;;;24.76;78.40
37368;BME280;23240;43.210;27.910;2023-08-07T06:13:44;100295.56;;;24.90;78.09
37368;BME280;23240;43.210;27.910;2023-08-07T06:16:09;100296.34;;;25.27;76.28
37368;BME280;23240;43.210;27.910;2023-08-07T06:18:35;100299.78;;;25.23;75.39
37368;BME280;23240;43.210;27.910;2023-08-07T06:21:00;100299.03;;;25.46;74.50
37368;BME280;23240;43.210;27.910;2023-08-07T06:23:25;100291.13;;;25.37;74.17
37368;BME280;23240;43.210;27.910;2023-08-07T06:25:51;100288.31;;;25.56;73.42
37368;BME280;23240;43.210;27.910;2023-08-07T06:28:16;100286.56;;;25.73;71.14
37368;BME280;23240;43.210;27.910;2023-08-07T06:30:41;100282.34;;;25.89;70.01
37368;BME280;23240;43.210;27.910;2023-08-07T06:33:07;100280.53;;;25.83;68.48
37368;BME280;23240;43.210;27.910;2023-08-07T06:35:37;100286.50;;;25.80;67.23
37368;BME280;23240;43.210;27.910;2023-08-07T06:38:02;100285.44;;;25.39;68.15
37368;BME280;23240;43.210;27.910;2023-08-07T06:40:27;100295.81;;;25.49;68.22
37368;BME280;23240;43.210;27.910;2023-08-07T06:42:53;100301.63;;;25.10;67.32
37368;BME280;23240;43.210;27.910;2023-08-07T06:45:19;100294.28;;;25.04;66.33
37368;BME280;23240;43.210;27.910;2023-08-07T06:47:44;100311.13;;;24.90;65.73
37368;BME280;23240;43.210;27.910;2023-08-07T06:50:09;100315.03;;;25.00;67.07
37368;BME280;23240;43.210;27.910;2023-08-07T06:52:35;100308.91;;;24.98;65.86
37368;BME280;23240;43.210;27.910;2023-08-07T06:55:01;100309.53;;;25.00;65.30
37368;BME280;23240;43.210;27.910;2023-08-07T06:57:27;100300.56;;;24.93;65.62
37368;BME280;23240;43.210;27.910;2023-08-07T06:59:52;100290.13;;;25.02;65.96
37368;BME280;23240;43.210;27.910;2023-08-07T07:02:17;100291.22;;;25.31;64.89
37368;BME280;23240;43.210;27.910;2023-08-07T07:04:42;100304.94;;;25.73;63.63
37368;BME280;23240;43.210;27.910;2023-08-07T07:07:08;100303.94;;;25.97;61.96
37368;BME280;23240;43.210;27.910;2023-08-07T07:09:33;100313.97;;;25.61;60.16
37368;BME280;23240;43.210;27.910;2023-08-07T07:11:59;100310.81;;;25.76;60.33
37368;BME280;23240;43.210;27.910;2023-08-07T07:14:24;100312.50;;;25.89;59.71
37368;BME280;23240;43.210;27.910;2023-08-07T07:16:49;100319.94;;;25.58;59.42
37368;BME280;23240;43.210;27.910;2023-08-07T07:19:14;100331.16;;;25.69;59.52
37368;BME280;23240;43.210;27.910;2023-08-07T07:21:41;100323.53;;;25.71;59.47
37368;BME280;23240;43.210;27.910;2023-08-07T07:24:06;100331.00;;;25.94;59.45
37368;BME280;23240;43.210;27.910;2023-08-07T07:26:32;100331.63;;;26.07;59.21
37368;BME280;23240;43.210;27.910;2023-08-07T07:28:57;100345.00;;;26.27;58.54
37368;BME280;23240;43.210;27.910;2023-08-07T07:31:22;100343.69;;;26.06;58.63
37368;BME280;23240;43.210;27.910;2023-08-07T07:33:48;100342.16;;;26.69;58.49
37368;BME280;23240;43.210;27.910;2023-08-07T07:36:16;100333.03;;;26.92;57.28
37368;BME280;23240;43.210;27.910;2023-08-07T07:38:42;100336.53;;;27.28;56.26
37368;BME280;23240;43.210;27.910;2023-08-07T07:41:08;100337.84;;;27.54;54.93
37368;BME280;23240;43.210;27.910;2023-08-07T07:43:36;100335.31;;;27.35;52.53
37368;BME280;23240;43.210;27.910;2023-08-07T07:46:01;100328.34;;;27.04;52.82
37368;BME280;23240;43.210;27.910;2023-08-07T07:48:27;100325.28;;;27.29;52.17
37368;BME280;23240;43.210;27.910;2023-08-07T07:50:57;100330.94;;;27.23;52.51
37368;BME280;23240;43.210;27.910;2023-08-07T07:53:23;100335.38;;;27.12;52.51
37368;BME280;23240;43.210;27.910;2023-08-07T07:55:48;100319.69;;;26.84;52.24
37368;BME280;23240;43.210;27.910;2023-08-07T07:58:13;100339.47;;;26.98;52.34
37368;BME280;23240;43.210;27.910;2023-08-07T08:00:39;100338.16;;;27.00;50.76
37368;BME280;23240;43.210;27.910;2023-08-07T08:03:04;100340.75;;;27.07;50.36
37368;BME280;23240;43.210;27.910;2023-08-07T08:05:29;100350.81;;;27.01;49.75
37368;BME280;23240;43.210;27.910;2023-08-07T08:07:54;100348.44;;;26.93;49.24
37368;BME280;23240;43.210;27.910;2023-08-07T08:10:20;100352.88;;;26.94;49.18
37368;BME280;23240;43.210;27.910;2023-08-07T08:12:45;100353.28;;;27.26;48.53
37368;BME280;23240;43.210;27.910;2023-08-07T08:15:10;100363.59;;;27.48;47.43
37368;BME280;23240;43.210;27.910;2023-08-07T08:17:36;100351.44;;;27.60;47.13
37368;BME280;23240;43.210;27.910;2023-08-07T08:20:01;100340.44;;;27.60;47.38
37368;BME280;23240;43.210;27.910;2023-08-07T08:22:26;100347.59;;;27.73;47.42
37368;BME280;23240;43.210;27.910;2023-08-07T08:24:52;100344.59;;;27.75;46.88
37368;BME280;23240;43.210;27.910;2023-08-07T08:27:17;100343.19;;;27.89;46.48
37368;BME280;23240;43.210;27.910;2023-08-07T08:29:42;100339.94;;;27.92;46.36
37368;BME280;23240;43.210;27.910;2023-08-07T08:32:08;100348.03;;;28.15;45.50
37368;BME280;23240;43.210;27.910;2023-08-07T08:34:34;100354.72;;;27.86;46.20
37368;BME280;23240;43.210;27.910;2023-08-07T08:36:59;100351.25;;;27.50;46.47
37368;BME280;23240;43.210;27.910;2023-08-07T08:39:24;100351.25;;;27.79;46.43
37368;BME280;23240;43.210;27.910;2023-08-07T08:41:50;100352.53;;;27.59;46.63
37368;BME280;23240;43.210;27.910;2023-08-07T08:44:16;100352.78;;;27.58;46.94
37368;BME280;23240;43.210;27.910;2023-08-07T08:46:42;100353.53;;;27.82;47.07
37368;BME280;23240;43.210;27.910;2023-08-07T08:49:08;100361.63;;;27.88;46.45
37368;BME280;23240;43.210;27.910;2023-08-07T08:51:35;100365.09;;;27.55;46.90
37368;BME280;23240;43.210;27.910;2023-08-07T08:54:00;100358.09;;;27.48;46.69
37368;BME280;23240;43.210;27.910;2023-08-07T08:56:27;100355.28;;;27.71;47.24
37368;BME280;23240;43.210;27.910;2023-08-07T08:58:52;100370.31;;;27.97;46.31
37368;BME280;23240;43.210;27.910;2023-08-07T09:01:18;100365.63;;;27.81;45.95
37368;BME280;23240;43.210;27.910;2023-08-07T09:03:46;100355.44;;;27.98;46.51
37368;BME280;23240;43.210;27.910;2023-08-07T09:06:12;100367.38;;;28.04;46.22
37368;BME280;23240;43.210;27.910;2023-08-07T09:08:39;100374.28;;;27.73;46.41
37368;BME280;23240;43.210;27.910;2023-08-07T09:11:05;100376.06;;;27.67;46.62
37368;BME280;23240;43.210;27.910;2023-08-07T09:13:32;100377.47;;;27.70;47.15
37368;BME280;23240;43.210;27.910;2023-08-07T09:15:58;100367.94;;;27.89;46.33
37368;BME280;23240;43.210;27.910;2023-08-07T09:18:24;100373.28;;;27.79;46.34
37368;BME280;23240;43.210;27.910;2023-08-07T09:20:50;100367.13;;;27.72;46.45
37368;BME280;23240;43.210;27.910;2023-08-07T09:23:16;100367.22;;;27.65;47.18
37368;BME280;23240;43.210;27.910;2023-08-07T09:25:42;100358.56;;;27.56;47.87
37368;BME280;23240;43.210;27.910;2023-08-07T09:28:07;100363.59;;;27.48;48.67
37368;BME280;23240;43.210;27.910;2023-08-07T09:30:34;100372.88;;;27.58;48.78
37368;BME280;23240;43.210;27.910;2023-08-07T09:32:59;100375.25;;;27.66;48.32
37368;BME280;23240;43.210;27.910;2023-08-07T09:35:25;100373.19;;;27.74;47.87
37368;BME280;23240;43.210;27.910;2023-08-07T09:37:51;100376.84;;;27.51;47.23
37368;BME280;23240;43.210;27.910;2023-08-07T09:40:17;100369.75;;;27.66;46.69
37368;BME280;23240;43.210;27.910;2023-08-07T09:42:42;100376.94;;;27.84;46.73
37368;BME280;23240;43.210;27.910;2023-08-07T09:45:29;100374.47;;;27.83;46.87
37368;BME280;23240;43.210;27.910;2023-08-07T09:48:02;100372.28;;;27.85;45.92
37368;BME280;23240;43.210;27.910;2023-08-07T09:50:28;100381.16;;;28.04;46.38
37368;BME280;23240;43.210;27.910;2023-08-07T09:52:54;100366.72;;;28.13;45.46
37368;BME280;23240;43.210;27.910;2023-08-07T09:55:20;100367.06;;;28.17;46.24
37368;BME280;23240;43.210;27.910;2023-08-07T09:57:46;100363.13;;;28.13;45.94
37368;BME280;23240;43.210;27.910;2023-08-07T10:00:11;100364.72;;;28.09;45.08
37368;BME280;23240;43.210;27.910;2023-08-07T10:02:38;100373.16;;;28.19;45.11
37368;BME280;23240;43.210;27.910;2023-08-07T10:05:06;100376.06;;;27.96;45.19
37368;BME280;23240;43.210;27.910;2023-08-07T10:07:33;100368.13;;;27.99;44.94
37368;BME280;23240;43.210;27.910;2023-08-07T10:09:59;100366.91;;;28.07;44.69
37368;BME280;23240;43.210;27.910;2023-08-07T10:12:25;100376.56;;;27.92;45.14
37368;BME280;23240;43.210;27.910;2023-08-07T10:14:51;100362.97;;;28.03;45.74
37368;BME280;23240;43.210;27.910;2023-08-07T10:17:16;100376.66;;;28.14;44.83
37368;BME280;23240;43.210;27.910;2023-08-07T10:19:43;100362.81;;;28.09;44.59
37368;BME280;23240;43.210;27.910;2023-08-07T10:22:08;100380.50;;;27.97;43.35
37368;BME280;23240;43.210;27.910;2023-08-07T10:24:34;100379.22;;;27.87;44.31
37368;BME280;23240;43.210;27.910;2023-08-07T10:27:01;100383.28;;;27.85;43.70
37368;BME280;23240;43.210;27.910;2023-08-07T10:29:27;100377.47;;;27.98;44.17
37368;BME280;23240;43.210;27.910;2023-08-07T10:31:52;100376.91;;;28.13;44.74
37368;BME280;23240;43.210;27.910;2023-08-07T10:34:19;100375.41;;;28.05;44.44
37368;BME280;23240;43.210;27.910;2023-08-07T10:36:44;100383.66;;;28.05;45.00
37368;BME280;23240;43.210;27.910;2023-08-07T10:39:10;100365.47;;;28.04;44.62
37368;BME280;23240;43.210;27.910;2023-08-07T10:41:39;100387.91;;;27.96;44.45
37368;BME280;23240;43.210;27.910;2023-08-07T10:44:10;100374.63;;;27.93;44.52
37368;BME280;23240;43.210;27.910;2023-08-07T10:46:52;100376.63;;;27.81;45.32
37368;BME280;23240;43.210;27.910;2023-08-07T10:49:31;100373.63;;;27.99;45.51
37368;BME280;23240;43.210;27.910;2023-08-07T10:52:02;100373.56;;;28.11;44.68
37368;BME280;23240;43.210;27.910;2023-08-07T10:54:28;100372.13;;;28.08;44.09
37368;BME280;23240;43.210;27.910;2023-08-07T10:56:53;100375.97;;;28.07;43.62
37368;BME280;23240;43.210;27.910;2023-08-07T10:59:19;100372.88;;;28.04;43.88
37368;BME280;23240;43.210;27.910;2023-08-07T11:01:49;100367.31;;;28.15;43.69
37368;BME280;23240;43.210;27.910;2023-08-07T11:04:15;100379.47;;;28.03;42.69
37368;BME280;23240;43.210;27.910;2023-08-07T11:06:42;100382.19;;;28.14;42.21
37368;BME280;23240;43.210;27.910;2023-08-07T11:09:08;100387.59;;;28.26;42.87
37368;BME280;23240;43.210;27.910;2023-08-07T11:14:05;100395.97;;;28.48;42.74
37368;BME280;23240;43.210;27.910;2023-08-07T11:16:30;100381.19;;;28.54;41.66
37368;BME280;23240;43.210;27.910;2023-08-07T11:18:55;100388.00;;;28.68;41.83
37368;BME280;23240;43.210;27.910;2023-08-07T11:21:21;100387.41;;;28.66;41.40
37368;BME280;23240;43.210;27.910;2023-08-07T11:23:47;100383.25;;;28.64;40.87
37368;BME280;23240;43.210;27.910;2023-08-07T11:26:12;100387.47;;;28.72;40.91
37368;BME280;23240;43.210;27.910;2023-08-07T11:28:37;100378.56;;;28.64;41.46
37368;BME280;23240;43.210;27.910;2023-08-07T11:31:03;100388.66;;;28.76;41.90
37368;BME280;23240;43.210;27.910;2023-08-07T11:33:28;100367.06;;;28.67;40.88
37368;BME280;23240;43.210;27.910;2023-08-07T11:35:54;100368.44;;;28.70;40.52
37368;BME280;23240;43.210;27.910;2023-08-07T11:40:59;100365.97;;;28.68;40.65
37368;BME280;23240;43.210;27.910;2023-08-07T11:43:26;100365.97;;;28.68;41.23
37368;BME280;23240;43.210;27.910;2023-08-07T11:45:51;100378.84;;;28.63;40.00
37368;BME280;23240;43.210;27.910;2023-08-07T11:48:17;100370.31;;;28.64;40.02
37368;BME280;23240;43.210;27.910;2023-08-07T11:50:42;100368.19;;;28.72;39.07
37368;BME280;23240;43.210;27.910;2023-08-07T11:53:07;100357.69;;;28.68;39.29
37368;BME280;23240;43.210;27.910;2023-08-07T11:55:33;100362.19;;;28.75;39.81
37368;BME280;23240;43.210;27.910;2023-08-07T11:57:59;100355.06;;;28.79;39.94
37368;BME280;23240;43.210;27.910;2023-08-07T12:00:25;100355.63;;;28.81;40.25
37368;BME280;23240;43.210;27.910;2023-08-07T12:02:52;100348.06;;;28.71;38.68
37368;BME280;23240;43.210;27.910;2023-08-07T12:05:18;100348.03;;;28.88;38.69
37368;BME280;23240;43.210;27.910;2023-08-07T12:07:43;100354.31;;;28.83;39.32
37368;BME280;23240;43.210;27.910;2023-08-07T12:10:09;100356.16;;;28.78;39.38
37368;BME280;23240;43.210;27.910;2023-08-07T12:12:36;100357.41;;;28.87;39.56
37368;BME280;23240;43.210;27.910;2023-08-07T12:15:01;100350.06;;;28.76;39.32
37368;BME280;23240;43.210;27.910;2023-08-07T12:17:29;100355.34;;;28.77;39.83
37368;BME280;23240;43.210;27.910;2023-08-07T12:19:56;100362.91;;;28.87;39.00
37368;BME280;23240;43.210;27.910;2023-08-07T12:22:21;100355.22;;;28.89;38.53
37368;BME280;23240;43.210;27.910;2023-08-07T12:24:46;100357.06;;;28.83;37.26
37368;BME280;23240;43.210;27.910;2023-08-07T12:27:12;100349.38;;;28.85;37.89
37368;BME280;23240;43.210;27.910;2023-08-07T12:29:37;100350.53;;;28.89;36.35
37368;BME280;23240;43.210;27.910;2023-08-07T12:32:03;100353.53;;;28.88;36.54
37368;BME280;23240;43.210;27.910;2023-08-07T12:34:28;100350.25;;;28.91;36.89
37368;BME280;23240;43.210;27.910;2023-08-07T12:36:53;100348.47;;;28.80;36.27
37368;BME280;23240;43.210;27.910;2023-08-07T12:39:19;100343.34;;;28.88;36.14